createdAt,value
2023-01-17T00:02:11.994Z,2.80
2023-01-17T00:04:57.673Z,2.80
2023-01-17T00:07:43.401Z,2.80
2023-01-17T00:10:15.969Z,2.70
2023-01-17T00:12:49.681Z,2.60
2023-01-17T00:15:19.848Z,2.60
2023-01-17T00:17:50.088Z,2.60
2023-01-17T00:20:38.722Z,2.60
2023-01-17T00:23:26.178Z,2.60
2023-01-17T00:26:04.460Z,2.60
2023-01-17T00:28:35.360Z,2.60
2023-01-17T00:31:03.898Z,2.60
2023-01-17T00:33:33.084Z,2.60
2023-01-17T00:36:01.729Z,2.60
2023-01-17T00:38:31.910Z,2.90
2023-01-17T00:41:03.982Z,2.60
2023-01-17T00:43:50.628Z,2.60
2023-01-17T00:46:37.200Z,2.60
2023-01-17T00:49:25.415Z,2.60
2023-01-17T00:52:11.359Z,2.70
2023-01-17T00:54:57.221Z,2.50
2023-01-17T00:57:42.793Z,2.50
2023-01-17T01:00:31.585Z,2.50
2023-01-17T01:03:17.530Z,2.50
2023-01-17T01:06:04.716Z,2.50
2023-01-17T01:08:50.218Z,2.40
2023-01-17T01:11:39.160Z,2.50
2023-01-17T01:14:28.429Z,2.40
2023-01-17T01:17:14.011Z,2.40
2023-01-17T01:19:59.594Z,2.30
2023-01-17T01:22:46.801Z,2.20
2023-01-17T01:25:32.626Z,2.30
2023-01-17T01:28:25.782Z,2.30
2023-01-17T01:31:11.324Z,2.30
2023-01-17T01:33:39.808Z,2.10
2023-01-17T01:36:09.888Z,2.10
2023-01-17T01:38:40.645Z,2.10
2023-01-17T01:41:09.211Z,2.10
2023-01-17T01:43:46.655Z,2.10
2023-01-17T01:46:21.013Z,2.10
2023-01-17T01:48:56.353Z,2.10
2023-01-17T01:51:31.070Z,2.10
2023-01-17T01:54:08.187Z,2.10
2023-01-17T01:56:38.511Z,2.10
2023-01-17T01:59:12.347Z,2.00
2023-01-17T02:01:40.815Z,2.00
2023-01-17T02:04:10.862Z,2.00
2023-01-17T02:06:46.949Z,2.00
2023-01-17T02:09:19.375Z,2.00
2023-01-17T02:11:50.626Z,1.80
2023-01-17T02:14:21.290Z,1.90
2023-01-17T02:17:11.305Z,2.00
2023-01-17T02:20:32.885Z,2.00
2023-01-17T02:23:54.432Z,2.10
2023-01-17T02:26:56.711Z,2.10
2023-01-17T02:30:12.299Z,2.00
2023-01-17T02:32:54.724Z,1.90
2023-01-17T02:35:35.152Z,2.00
2023-01-17T02:38:18.784Z,1.90
2023-01-17T02:40:54.441Z,2.00
2023-01-17T02:43:24.952Z,2.00
2023-01-17T02:45:54.520Z,2.00
2023-01-17T02:48:29.660Z,1.90
2023-01-17T02:51:49.328Z,1.90
2023-01-17T02:54:57.088Z,1.90
2023-01-17T02:57:53.483Z,1.80
2023-01-17T03:00:29.315Z,1.70
2023-01-17T03:03:15.092Z,1.60
2023-01-17T03:05:49.624Z,1.70
2023-01-17T03:08:19.339Z,1.70
2023-01-17T03:10:48.034Z,1.70
2023-01-17T03:13:16.571Z,1.80
2023-01-17T03:15:45.181Z,1.90
2023-01-17T03:18:17.305Z,2.00
2023-01-17T03:20:45.480Z,1.90
2023-01-17T03:23:13.828Z,2.00
2023-01-17T03:25:42.046Z,2.10
2023-01-17T03:28:10.204Z,1.90
2023-01-17T03:30:38.450Z,1.90
2023-01-17T03:33:06.634Z,1.80
2023-01-17T03:35:36.226Z,1.80
2023-01-17T03:38:04.709Z,1.80
2023-01-17T03:40:33.140Z,1.90
2023-01-17T03:43:01.319Z,2.00
2023-01-17T03:45:29.565Z,2.10
2023-01-17T03:47:57.858Z,2.10
2023-01-17T03:50:26.894Z,2.20
2023-01-17T03:52:56.525Z,2.20
2023-01-17T03:55:24.755Z,2.10
2023-01-17T03:57:52.933Z,2.00
2023-01-17T04:00:21.916Z,2.10
2023-01-17T04:02:50.171Z,2.10
2023-01-17T04:05:18.541Z,2.10
2023-01-17T04:07:46.714Z,2.00
2023-01-17T04:10:17.210Z,2.20
2023-01-17T04:12:45.571Z,2.10
2023-01-17T04:15:13.808Z,2.10
2023-01-17T04:17:42.877Z,2.00
2023-01-17T04:20:19.577Z,2.00
2023-01-17T04:22:47.737Z,2.10
2023-01-17T04:25:17.380Z,2.20
2023-01-17T04:27:45.876Z,2.20
2023-01-17T04:30:14.534Z,2.20
2023-01-17T04:32:42.675Z,2.30
2023-01-17T04:35:11.384Z,2.20
2023-01-17T04:37:39.744Z,2.40
2023-01-17T04:40:09.895Z,2.30
2023-01-17T04:42:39.684Z,2.30
2023-01-17T04:45:09.645Z,2.30
2023-01-17T04:47:37.833Z,2.40
2023-01-17T04:50:07.268Z,2.40
2023-01-17T04:52:35.415Z,2.40
2023-01-17T04:55:03.699Z,2.60
2023-01-17T04:57:31.956Z,2.80
2023-01-17T05:00:01.483Z,2.80
2023-01-17T05:02:29.725Z,2.90
2023-01-17T05:04:57.845Z,2.80
2023-01-17T05:07:26.070Z,2.90
2023-01-17T05:09:54.223Z,3.30
2023-01-17T05:12:22.601Z,3.40
2023-01-17T05:14:51.555Z,3.50
2023-01-17T05:17:21.763Z,3.40
2023-01-17T05:19:50.162Z,3.60
2023-01-17T05:22:18.594Z,3.70
2023-01-17T05:24:49.167Z,3.90
2023-01-17T05:27:17.669Z,4.00
2023-01-17T05:29:46.023Z,4.30
2023-01-17T05:32:14.153Z,4.40
2023-01-17T05:34:43.644Z,4.50
2023-01-17T05:37:11.837Z,4.70
2023-01-17T05:39:39.998Z,4.70
2023-01-17T05:42:08.222Z,4.70
2023-01-17T05:44:36.416Z,4.70
2023-01-17T05:47:04.589Z,4.60
2023-01-17T05:49:32.756Z,4.80
2023-01-17T05:52:02.349Z,4.80
2023-01-17T05:54:30.757Z,4.70
2023-01-17T05:56:58.899Z,4.60
2023-01-17T05:59:36.671Z,4.70
2023-01-17T06:02:05.807Z,4.60
2023-01-17T06:04:34.051Z,4.60
2023-01-17T06:07:03.599Z,4.60
2023-01-17T06:09:31.765Z,4.70
2023-01-17T06:11:59.944Z,4.70
2023-01-17T06:14:28.070Z,4.70
2023-01-17T06:16:56.291Z,4.70
2023-01-17T06:19:24.536Z,4.70
2023-01-17T06:21:52.699Z,4.70
2023-01-17T06:24:22.220Z,4.50
2023-01-17T06:26:50.618Z,4.30
2023-01-17T06:29:18.765Z,4.20
2023-01-17T06:31:47.015Z,4.10
2023-01-17T06:34:15.115Z,4.00
2023-01-17T06:36:43.299Z,3.80
2023-01-17T06:39:14.111Z,3.70
2023-01-17T06:41:44.580Z,3.80
2023-01-17T06:44:13.238Z,3.70
2023-01-17T06:46:41.753Z,3.70
2023-01-17T06:49:10.055Z,3.70
2023-01-17T06:51:38.157Z,3.70
2023-01-17T06:54:06.504Z,3.70
2023-01-17T06:56:35.049Z,3.70
2023-01-17T06:59:05.757Z,3.70
2023-01-17T07:01:34.012Z,3.70
2023-01-17T07:04:02.496Z,3.80
2023-01-17T07:06:30.695Z,3.80
2023-01-17T07:08:59.273Z,3.70
2023-01-17T07:11:27.673Z,3.80
2023-01-17T07:13:55.794Z,3.80
2023-01-17T07:16:25.381Z,3.80
2023-01-17T07:18:54.720Z,3.80
2023-01-17T07:21:22.914Z,3.90
2023-01-17T07:23:51.040Z,3.90
2023-01-17T07:26:20.086Z,3.90
2023-01-17T07:28:48.313Z,3.90
2023-01-17T07:31:16.861Z,3.90
2023-01-17T07:33:46.398Z,4.00
2023-01-17T07:36:14.573Z,4.00
2023-01-17T07:38:43.890Z,4.20
2023-01-17T07:41:12.098Z,4.20
2023-01-17T07:43:40.188Z,4.20
2023-01-17T07:46:08.585Z,4.20
2023-01-17T07:48:37.098Z,4.20
2023-01-17T07:51:07.039Z,4.20
2023-01-17T07:53:36.053Z,4.20
2023-01-17T07:56:07.328Z,4.30
2023-01-17T07:58:36.850Z,4.30
2023-01-17T08:01:07.727Z,4.30
2023-01-17T08:03:40.175Z,4.30
2023-01-17T08:06:20.288Z,4.40
2023-01-17T08:08:49.450Z,4.40
2023-01-17T08:11:17.836Z,4.50
2023-01-17T08:13:46.192Z,4.50
2023-01-17T08:16:15.550Z,4.50
2023-01-17T08:18:43.780Z,4.60
2023-01-17T08:21:17.281Z,4.50
2023-01-17T08:23:48.916Z,4.50
2023-01-17T08:26:21.301Z,4.50
2023-01-17T08:28:55.020Z,4.40
2023-01-17T08:31:23.485Z,4.50
2023-01-17T08:33:51.675Z,4.50
2023-01-17T08:36:21.255Z,4.60
2023-01-17T08:38:52.658Z,4.60
2023-01-17T08:41:21.307Z,4.60
2023-01-17T08:43:50.924Z,4.70
2023-01-17T08:46:21.128Z,4.80
2023-01-17T08:48:51.388Z,4.80
2023-01-17T08:51:20.974Z,4.90
2023-01-17T08:53:49.432Z,4.90
2023-01-17T08:56:17.556Z,5.00
2023-01-17T08:58:47.520Z,5.00
2023-01-17T09:01:15.778Z,4.90
2023-01-17T09:03:45.590Z,4.80
2023-01-17T09:06:16.395Z,4.80
2023-01-17T09:08:46.978Z,4.80
2023-01-17T09:11:18.124Z,4.90
2023-01-17T09:13:46.363Z,4.90
2023-01-17T09:16:14.553Z,4.90
2023-01-17T09:18:42.769Z,4.80
2023-01-17T09:21:13.683Z,4.90
2023-01-17T09:23:42.762Z,4.80
2023-01-17T09:26:21.500Z,4.90
2023-01-17T09:28:49.812Z,5.10
2023-01-17T09:31:20.557Z,5.10
2023-01-17T09:33:48.775Z,5.20
2023-01-17T09:36:17.117Z,5.30
2023-01-17T09:38:45.491Z,5.30
2023-01-17T09:41:29.568Z,5.30
2023-01-17T09:44:05.838Z,5.40
2023-01-17T09:46:39.985Z,5.40
2023-01-17T09:49:15.695Z,5.50
2023-01-17T09:51:44.832Z,5.50
2023-01-17T09:54:23.008Z,5.50
2023-01-17T09:57:04.407Z,5.40
2023-01-17T09:59:46.946Z,5.20
2023-01-17T10:02:45.152Z,5.30
2023-01-17T10:05:34.334Z,5.30
2023-01-17T10:08:23.042Z,5.20
2023-01-17T10:11:14.078Z,5.30
2023-01-17T10:14:01.490Z,5.30
2023-01-17T10:16:45.388Z,5.30
2023-01-17T10:19:45.740Z,5.40
2023-01-17T10:22:36.844Z,5.40
2023-01-17T10:25:33.202Z,5.60
2023-01-17T10:28:06.768Z,5.80
2023-01-17T10:30:43.359Z,5.60
2023-01-17T10:33:19.817Z,5.80
2023-01-17T10:35:57.751Z,5.60
2023-01-17T10:38:33.446Z,5.80
2023-01-17T10:41:09.807Z,5.60
2023-01-17T10:43:51.199Z,5.60
2023-01-17T10:46:28.696Z,5.60
2023-01-17T10:48:58.439Z,5.50
2023-01-17T10:52:02.312Z,5.50
2023-01-17T10:55:03.920Z,5.30
2023-01-17T10:57:39.317Z,5.40
2023-01-17T11:00:39.813Z,5.30
2023-01-17T11:03:12.723Z,5.20
2023-01-17T11:05:42.751Z,5.30
2023-01-17T11:08:14.298Z,5.30
2023-01-17T11:10:47.020Z,5.30
2023-01-17T11:13:27.537Z,5.40
2023-01-17T11:16:00.718Z,5.40
2023-01-17T11:18:34.146Z,5.50
2023-01-17T11:21:13.970Z,5.60
2023-01-17T11:23:45.518Z,5.50
2023-01-17T11:26:27.251Z,5.60
2023-01-17T11:29:16.214Z,5.50
2023-01-17T11:31:44.998Z,5.70
2023-01-17T11:34:19.887Z,5.80
2023-01-17T11:36:49.251Z,5.50
2023-01-17T11:39:29.606Z,5.20
2023-01-17T11:41:57.993Z,5.50
2023-01-17T11:44:29.416Z,5.70
2023-01-17T11:47:19.978Z,5.50
2023-01-17T11:49:50.950Z,4.50
2023-01-17T11:52:25.447Z,4.00
2023-01-17T11:54:56.523Z,3.90
2023-01-17T11:57:28.762Z,3.80
2023-01-17T12:00:12.680Z,3.90
2023-01-17T12:03:18.050Z,3.90
2023-01-17T12:06:03.591Z,4.00
2023-01-17T12:08:51.429Z,4.00
2023-01-17T12:11:37.163Z,4.10
2023-01-17T12:14:24.211Z,4.40
2023-01-17T12:17:13.927Z,4.40
2023-01-17T12:20:01.366Z,4.40
2023-01-17T12:22:57.887Z,4.30
2023-01-17T12:25:45.783Z,4.30
2023-01-17T12:28:46.430Z,4.30
2023-01-17T12:31:27.759Z,4.30
2023-01-17T12:34:07.040Z,4.10
2023-01-17T12:36:49.675Z,4.00
2023-01-17T12:39:26.780Z,3.50
2023-01-17T12:42:04.665Z,3.00
2023-01-17T12:44:55.712Z,2.50
2023-01-17T12:47:23.896Z,2.50
2023-01-17T12:50:05.404Z,2.50
2023-01-17T12:52:54.975Z,2.70
2023-01-17T12:55:38.972Z,2.90
2023-01-17T12:58:17.355Z,3.20
2023-01-17T13:00:51.096Z,3.20
2023-01-17T13:03:31.190Z,3.20
2023-01-17T13:06:03.772Z,3.30
2023-01-17T13:08:41.676Z,3.10
2023-01-17T13:11:27.760Z,3.00
2023-01-17T13:13:57.524Z,3.00
2023-01-17T13:16:35.852Z,2.80
2023-01-17T13:19:17.175Z,2.70
2023-01-17T13:21:48.955Z,2.90
2023-01-17T13:24:29.390Z,3.20
2023-01-17T13:27:32.798Z,3.40
2023-01-17T13:30:30.249Z,3.50
2023-01-17T13:33:35.119Z,3.50
2023-01-17T13:36:46.545Z,3.50
2023-01-17T13:40:01.453Z,3.60
2023-01-17T13:42:45.749Z,3.50
2023-01-17T13:45:22.430Z,3.50
2023-01-17T13:47:50.617Z,3.60
2023-01-17T13:50:50.131Z,3.60
2023-01-17T13:53:58.921Z,3.60
2023-01-17T13:56:36.123Z,3.60
2023-01-17T13:59:30.611Z,3.60
2023-01-17T14:01:58.997Z,3.60
2023-01-17T14:05:10.580Z,3.60
2023-01-17T14:07:48.211Z,3.60
2023-01-17T14:10:34.401Z,3.70
2023-01-17T14:13:03.086Z,3.90
2023-01-17T14:15:47.971Z,3.80
2023-01-17T14:18:34.664Z,3.90
2023-01-17T14:21:12.341Z,4.10
2023-01-17T14:24:07.067Z,3.90
2023-01-17T14:26:56.308Z,3.70
2023-01-17T14:29:56.958Z,3.50
2023-01-17T14:32:32.089Z,3.30
2023-01-17T14:35:00.815Z,3.30
2023-01-17T14:37:46.966Z,3.30
2023-01-17T14:40:25.944Z,3.20
2023-01-17T14:43:01.648Z,3.20
2023-01-17T14:45:33.836Z,3.10
2023-01-17T14:48:07.058Z,3.10
2023-01-17T14:50:39.717Z,3.20
2023-01-17T14:53:25.956Z,3.30
2023-01-17T14:56:01.715Z,3.30
2023-01-17T14:58:33.010Z,3.40
2023-01-17T15:01:04.350Z,3.60
2023-01-17T15:03:44.635Z,3.60
2023-01-17T15:06:19.284Z,3.60
2023-01-17T15:08:49.493Z,3.60
2023-01-17T15:11:23.913Z,3.70
2023-01-17T15:13:57.357Z,3.60
2023-01-17T15:16:28.342Z,3.50
2023-01-17T15:18:59.563Z,3.60
2023-01-17T15:21:31.995Z,3.70
2023-01-17T15:24:03.779Z,3.60
2023-01-17T15:26:37.426Z,3.60
2023-01-17T15:29:08.766Z,3.50
2023-01-17T15:31:44.080Z,3.50
2023-01-17T15:34:27.375Z,3.40
2023-01-17T15:36:58.638Z,3.30
2023-01-17T15:39:30.837Z,3.30
2023-01-17T15:42:03.814Z,3.30
2023-01-17T15:44:47.523Z,3.30
2023-01-17T15:47:32.521Z,3.30
2023-01-17T15:50:25.622Z,3.30
2023-01-17T15:52:56.689Z,3.30
2023-01-17T15:55:30.545Z,3.50
2023-01-17T15:57:59.026Z,3.40
2023-01-17T16:00:37.573Z,3.40
2023-01-17T16:03:23.731Z,3.40
2023-01-17T16:05:57.811Z,3.40
2023-01-17T16:08:33.852Z,3.30
2023-01-17T16:11:06.174Z,3.50
2023-01-17T16:13:37.788Z,3.40
2023-01-17T16:16:23.033Z,3.40
2023-01-17T16:19:03.557Z,3.30
2023-01-17T16:21:33.371Z,3.30
2023-01-17T16:24:03.705Z,3.20
2023-01-17T16:26:32.024Z,3.20
2023-01-17T16:29:00.188Z,3.10
2023-01-17T16:31:28.317Z,3.10
2023-01-17T16:33:56.451Z,3.10
2023-01-17T16:36:24.611Z,3.10
2023-01-17T16:38:54.195Z,3.10
2023-01-17T16:41:22.715Z,3.10
2023-01-17T16:44:02.950Z,3.10
2023-01-17T16:46:31.846Z,3.30
2023-01-17T16:49:02.023Z,3.50
2023-01-17T16:51:30.187Z,3.50
2023-01-17T16:54:00.424Z,3.60
2023-01-17T16:56:28.758Z,3.80
2023-01-17T16:58:56.921Z,3.80
2023-01-17T17:01:25.288Z,3.30
2023-01-17T17:03:53.675Z,3.20
2023-01-17T17:06:21.968Z,3.00
2023-01-17T17:08:50.855Z,2.80
2023-01-17T17:11:23.879Z,2.80
2023-01-17T17:13:53.018Z,2.70
2023-01-17T17:16:26.549Z,2.60
2023-01-17T17:18:59.808Z,2.50
2023-01-17T17:21:29.613Z,2.40
2023-01-17T17:24:00.559Z,2.40
2023-01-17T17:26:34.410Z,2.30
2023-01-17T17:29:03.939Z,2.20
2023-01-17T17:31:32.309Z,2.20
2023-01-17T17:34:01.824Z,2.10
2023-01-17T17:36:30.692Z,2.10
2023-01-17T17:38:59.708Z,2.00
2023-01-17T17:41:32.893Z,2.10
2023-01-17T17:44:03.594Z,2.10
2023-01-17T17:46:33.773Z,2.10
2023-01-17T17:49:02.824Z,2.00
2023-01-17T17:51:33.952Z,2.00
2023-01-17T17:54:05.997Z,2.00
2023-01-17T17:56:36.786Z,1.90
2023-01-17T17:59:07.445Z,1.90
2023-01-17T18:01:38.365Z,1.90
2023-01-17T18:04:07.885Z,1.80
2023-01-17T18:06:45.775Z,1.80
2023-01-17T18:09:15.075Z,1.80
2023-01-17T18:11:45.739Z,1.80
2023-01-17T18:14:34.952Z,1.80
2023-01-17T18:17:03.216Z,1.90
2023-01-17T18:19:31.472Z,1.80
2023-01-17T18:21:59.618Z,1.90
2023-01-17T18:24:28.798Z,2.00
2023-01-17T18:26:59.100Z,1.90
2023-01-17T18:29:28.585Z,1.90
2023-01-17T18:33:09.712Z,2.20
2023-01-17T18:35:37.957Z,2.10
2023-01-17T18:38:06.392Z,1.90
2023-01-17T18:40:35.811Z,1.90
2023-01-17T18:43:05.364Z,1.70
2023-01-17T18:45:33.564Z,1.60
2023-01-17T18:48:02.499Z,1.40
2023-01-17T18:50:30.650Z,1.40
2023-01-17T18:52:59.067Z,1.40
2023-01-17T18:55:27.261Z,1.40
2023-01-17T18:57:55.793Z,1.30
2023-01-17T19:00:25.968Z,1.20
2023-01-17T19:02:54.133Z,0.90
2023-01-17T19:05:24.503Z,0.80
2023-01-17T19:07:53.071Z,0.80
2023-01-17T19:10:21.581Z,0.90
2023-01-17T19:12:49.800Z,1.00
2023-01-17T19:15:17.976Z,1.10
2023-01-17T19:17:47.509Z,1.00
2023-01-17T19:20:16.274Z,0.90
2023-01-17T19:22:44.521Z,0.90
2023-01-17T19:25:12.697Z,0.80
2023-01-17T19:27:41.812Z,0.70
2023-01-17T19:30:11.964Z,0.60
2023-01-17T19:32:40.229Z,0.60
2023-01-17T19:35:11.162Z,0.50
2023-01-17T19:37:39.299Z,0.50
2023-01-17T19:40:09.469Z,0.50
2023-01-17T19:42:37.743Z,0.40
2023-01-17T19:45:07.156Z,0.30
2023-01-17T19:47:35.420Z,0.20
2023-01-17T19:50:04.614Z,0.00
2023-01-17T19:52:34.202Z,0.00
2023-01-17T19:55:02.449Z,0.00
2023-01-17T19:57:34.719Z,0.00
2023-01-17T20:00:04.750Z,-0.10
2023-01-17T20:02:35.941Z,-0.20
2023-01-17T20:05:04.187Z,-0.20
2023-01-17T20:07:33.977Z,-0.30
2023-01-17T20:10:02.132Z,-0.30
2023-01-17T20:12:31.714Z,-0.20
2023-01-17T20:14:59.883Z,0.00
2023-01-17T20:17:28.082Z,0.20
2023-01-17T20:19:56.362Z,0.10
2023-01-17T20:22:24.530Z,0.10
2023-01-17T20:24:54.120Z,0.00
2023-01-17T20:27:26.460Z,0.00
2023-01-17T20:29:54.648Z,0.00
2023-01-17T20:32:22.925Z,-0.10
2023-01-17T20:34:51.381Z,-0.20
2023-01-17T20:37:19.602Z,-0.20
2023-01-17T20:39:47.986Z,-0.20
2023-01-17T20:42:18.498Z,-0.20
2023-01-17T20:44:46.861Z,-0.20
2023-01-17T20:47:14.997Z,-0.10
2023-01-17T20:49:43.545Z,-0.20
2023-01-17T20:52:15.163Z,-0.20
2023-01-17T20:54:44.214Z,-0.10
2023-01-17T20:57:12.365Z,-0.20
2023-01-17T20:59:42.087Z,-0.20
2023-01-17T21:02:11.117Z,-0.20
2023-01-17T21:04:39.510Z,-0.20
2023-01-17T21:07:07.647Z,-0.20
2023-01-17T21:09:35.821Z,-0.20
2023-01-17T21:12:04.227Z,-0.30
2023-01-17T21:14:32.335Z,-0.30
2023-01-17T21:17:01.889Z,-0.30
2023-01-17T21:19:30.290Z,-0.30
2023-01-17T21:21:59.020Z,-0.30
2023-01-17T21:24:29.245Z,-0.30
2023-01-17T21:26:57.403Z,-0.30
2023-01-17T21:29:29.025Z,-0.30
2023-01-17T21:31:57.578Z,-0.30
2023-01-17T21:34:27.592Z,-0.30
2023-01-17T21:36:55.811Z,-0.40
2023-01-17T21:39:24.346Z,-0.40
2023-01-17T21:41:52.513Z,-0.40
2023-01-17T21:44:22.912Z,-0.30
2023-01-17T21:46:55.931Z,-0.40
2023-01-17T21:49:25.991Z,-0.40
2023-01-17T21:52:11.772Z,-0.30
2023-01-17T21:54:57.296Z,-0.20
2023-01-17T21:57:43.082Z,-0.20
2023-01-17T22:00:15.312Z,0.00
2023-01-17T22:02:44.484Z,0.00
2023-01-17T22:05:16.374Z,0.20
2023-01-17T22:08:05.405Z,0.30
2023-01-17T22:10:44.436Z,0.20
2023-01-17T22:13:14.686Z,0.20
2023-01-17T22:15:43.628Z,0.20
2023-01-17T22:18:14.490Z,0.30
2023-01-17T22:20:44.384Z,0.40
2023-01-17T22:23:12.593Z,0.60
2023-01-17T22:25:40.862Z,0.50
2023-01-17T22:28:09.276Z,1.10
2023-01-17T22:30:37.426Z,0.40
2023-01-17T22:33:05.834Z,0.40
2023-01-17T22:35:34.028Z,0.40
2023-01-17T22:38:03.641Z,0.40
2023-01-17T22:40:36.112Z,0.40
2023-01-17T22:43:04.526Z,0.40
2023-01-17T22:45:32.705Z,0.50
2023-01-17T22:48:00.871Z,0.50
2023-01-17T22:50:29.060Z,0.60
2023-01-17T22:52:57.669Z,0.50
2023-01-17T22:55:27.425Z,0.40
2023-01-17T22:57:55.611Z,0.40
2023-01-17T23:00:23.899Z,0.20
2023-01-17T23:02:52.200Z,0.40
2023-01-17T23:05:20.478Z,0.40
2023-01-17T23:07:51.237Z,0.20
2023-01-17T23:10:33.469Z,0.00
2023-01-17T23:13:03.045Z,0.10
2023-01-17T23:15:48.717Z,0.20
2023-01-17T23:18:45.707Z,-0.10
2023-01-17T23:21:13.972Z,-0.30
2023-01-17T23:23:42.259Z,-0.30
2023-01-17T23:26:10.517Z,-0.30
2023-01-17T23:28:39.073Z,-0.40
2023-01-17T23:31:08.609Z,-0.30
2023-01-17T23:33:36.785Z,-0.40
2023-01-17T23:36:09.133Z,-0.50
2023-01-17T23:38:40.542Z,-0.60
2023-01-17T23:41:27.206Z,-0.60
2023-01-17T23:43:59.328Z,-0.50
2023-01-17T23:46:29.968Z,-0.40
2023-01-17T23:48:58.271Z,-0.40
2023-01-17T23:51:26.630Z,-0.50
2023-01-17T23:54:05.101Z,-0.50
2023-01-17T23:56:33.272Z,-0.50
2023-01-17T23:59:04.482Z,-0.60
